Kezdőlap
METAR-TAF:

METAR-TAF

Repülőterek :

Torrington Municipal Airport

Torrington, Wyoming, Amerikai Egyesült Államok

földrajzi szélesség: 42-03-53N, földrajzi hosszúság: 104-09-10W, magasság: 1282 m

Jelenlegi meteorológiai megfigyelések

A jelentés 1 órával és 1 perccel ezelõtt készült, 21:53 UTC
Északnyugati szél 12 kt széllökések: 17 kt
Hőmérséklet 6°C
Páratartalom 36%
Légköri nyomás 1023 hPa
Látótávolság: 16.1 km
Szakadozott felhőzet 6500 lábon

METAR: KTOR 182153Z AUTO 32012G17KT 10SM BKN065 06/M08 A3020 RMK AO2 SLP239 T00611083

Idő: 16:54 (22:54 UTC)


TAF: hiányzik

Meteorológiai megfigyelések és előrejelzések több, mint 4000 repülőtéren (METAR és TAF jelentéseket).

A térképen piros és sárga pontok jelzik az elérhető meteorológiai állomásokat.

Mozgassa az egeret a pont fölött, hogy megjelenjen az állomás neve.

Azután kattintson az időjárási megfigyelések és előrejelzések megtekintéséhez.

A térkép megváltoztatása: kattintson a fekete keresztel jelölt zöld gombra ráközelítéshez, a vonallal jelölt zöld gombra távolításhoz, vagy a zöld nyilakra a szomszédos térképek eléréséhez.


METAR-TAF: